sensor_id;sensor_type;location;lat;lon;timestamp;temperature;humidity
10263;DHT22;5177;50.068;8.156;2024-03-17T00:01:52;8.30;99.90
10263;DHT22;5177;50.068;8.156;2024-03-17T00:04:17;8.30;99.90
10263;DHT22;5177;50.068;8.156;2024-03-17T00:06:44;8.30;99.90
10263;DHT22;5177;50.068;8.156;2024-03-17T00:09:10;8.30;99.90
10263;DHT22;5177;50.068;8.156;2024-03-17T00:11:36;8.30;99.90
10263;DHT22;5177;50.068;8.156;2024-03-17T00:14:01;8.30;99.90
10263;DHT22;5177;50.068;8.156;2024-03-17T00:16:27;8.30;99.90
10263;DHT22;5177;50.068;8.156;2024-03-17T00:18:53;8.30;1.00
10263;DHT22;5177;50.068;8.156;2024-03-17T00:21:19;8.30;1.00
10263;DHT22;5177;50.068;8.156;2024-03-17T00:23:47;8.30;1.00
10263;DHT22;5177;50.068;8.156;2024-03-17T00:26:14;8.30;1.00
10263;DHT22;5177;50.068;8.156;2024-03-17T00:28:40;8.30;1.00
10263;DHT22;5177;50.068;8.156;2024-03-17T00:31:05;8.30;99.90
10263;DHT22;5177;50.068;8.156;2024-03-17T00:33:31;8.30;99.90
10263;DHT22;5177;50.068;8.156;2024-03-17T00:35:58;8.30;1.00
10263;DHT22;5177;50.068;8.156;2024-03-17T00:38:24;8.20;1.00
10263;DHT22;5177;50.068;8.156;2024-03-17T00:40:50;8.20;99.90
10263;DHT22;5177;50.068;8.156;2024-03-17T00:43:15;8.20;1.00
10263;DHT22;5177;50.068;8.156;2024-03-17T00:45:41;8.10;1.00
10263;DHT22;5177;50.068;8.156;2024-03-17T00:48:06;8.10;72.60
10263;DHT22;5177;50.068;8.156;2024-03-17T00:50:32;8.10;99.90
10263;DHT22;5177;50.068;8.156;2024-03-17T00:52:58;8.00;99.90
10263;DHT22;5177;50.068;8.156;2024-03-17T00:55:23;7.90;22.60
10263;DHT22;5177;50.068;8.156;2024-03-17T00:57:49;7.80;99.90
10263;DHT22;5177;50.068;8.156;2024-03-17T01:00:14;7.80;99.90
10263;DHT22;5177;50.068;8.156;2024-03-17T01:02:40;7.80;1.00
10263;DHT22;5177;50.068;8.156;2024-03-17T01:05:06;7.70;1.00
10263;DHT22;5177;50.068;8.156;2024-03-17T01:07:32;7.80;99.90
10263;DHT22;5177;50.068;8.156;2024-03-17T01:09:58;7.70;99.90
10263;DHT22;5177;50.068;8.156;2024-03-17T01:12:24;7.60;99.90
10263;DHT22;5177;50.068;8.156;2024-03-17T01:14:49;7.60;1.00
10263;DHT22;5177;50.068;8.156;2024-03-17T01:17:15;7.50;34.10
10263;DHT22;5177;50.068;8.156;2024-03-17T01:19:40;7.50;1.00
10263;DHT22;5177;50.068;8.156;2024-03-17T01:22:06;7.50;99.90
10263;DHT22;5177;50.068;8.156;2024-03-17T01:24:31;7.40;99.90
10263;DHT22;5177;50.068;8.156;2024-03-17T01:26:58;7.40;99.90
10263;DHT22;5177;50.068;8.156;2024-03-17T01:29:24;7.30;1.00
10263;DHT22;5177;50.068;8.156;2024-03-17T01:31:50;7.30;99.90
10263;DHT22;5177;50.068;8.156;2024-03-17T01:34:16;7.20;99.90
10263;DHT22;5177;50.068;8.156;2024-03-17T01:36:41;7.20;1.00
10263;DHT22;5177;50.068;8.156;2024-03-17T01:39:07;7.20;1.00
10263;DHT22;5177;50.068;8.156;2024-03-17T01:41:33;7.10;1.00
10263;DHT22;5177;50.068;8.156;2024-03-17T01:43:58;7.10;1.00
10263;DHT22;5177;50.068;8.156;2024-03-17T01:46:24;7.00;99.90
10263;DHT22;5177;50.068;8.156;2024-03-17T01:48:49;7.00;1.00
10263;DHT22;5177;50.068;8.156;2024-03-17T01:51:15;6.90;99.90
10263;DHT22;5177;50.068;8.156;2024-03-17T01:53:41;6.90;1.00
10263;DHT22;5177;50.068;8.156;2024-03-17T01:56:07;6.90;99.90
10263;DHT22;5177;50.068;8.156;2024-03-17T01:58:35;6.90;1.00
10263;DHT22;5177;50.068;8.156;2024-03-17T02:01:01;6.80;99.90
10263;DHT22;5177;50.068;8.156;2024-03-17T02:03:28;6.70;99.90
10263;DHT22;5177;50.068;8.156;2024-03-17T02:05:54;6.80;99.90
10263;DHT22;5177;50.068;8.156;2024-03-17T02:08:19;6.60;1.00
10263;DHT22;5177;50.068;8.156;2024-03-17T02:10:49;6.60;1.00
10263;DHT22;5177;50.068;8.156;2024-03-17T02:13:17;6.50;99.90
10263;DHT22;5177;50.068;8.156;2024-03-17T02:15:42;6.50;99.90
10263;DHT22;5177;50.068;8.156;2024-03-17T02:18:08;6.50;38.70
10263;DHT22;5177;50.068;8.156;2024-03-17T02:20:33;6.50;1.00
10263;DHT22;5177;50.068;8.156;2024-03-17T02:23:17;6.50;1.00
10263;DHT22;5177;50.068;8.156;2024-03-17T02:25:43;6.50;1.00
10263;DHT22;5177;50.068;8.156;2024-03-17T02:28:11;6.50;99.90
10263;DHT22;5177;50.068;8.156;2024-03-17T02:30:36;6.40;1.00
10263;DHT22;5177;50.068;8.156;2024-03-17T02:33:02;6.50;1.00
10263;DHT22;5177;50.068;8.156;2024-03-17T02:35:28;6.50;6.90
10263;DHT22;5177;50.068;8.156;2024-03-17T02:37:53;6.40;99.90
10263;DHT22;5177;50.068;8.156;2024-03-17T02:40:19;6.40;1.00
10263;DHT22;5177;50.068;8.156;2024-03-17T02:42:45;6.40;99.90
10263;DHT22;5177;50.068;8.156;2024-03-17T02:45:13;6.40;1.00
10263;DHT22;5177;50.068;8.156;2024-03-17T02:47:39;6.40;1.00
10263;DHT22;5177;50.068;8.156;2024-03-17T02:50:05;6.30;1.00
10263;DHT22;5177;50.068;8.156;2024-03-17T02:52:30;6.30;1.00
10263;DHT22;5177;50.068;8.156;2024-03-17T02:54:56;6.20;99.90
10263;DHT22;5177;50.068;8.156;2024-03-17T02:57:22;6.10;99.90
10263;DHT22;5177;50.068;8.156;2024-03-17T02:59:50;6.20;1.00
10263;DHT22;5177;50.068;8.156;2024-03-17T03:02:16;6.10;99.90
10263;DHT22;5177;50.068;8.156;2024-03-17T03:04:41;6.10;99.90
10263;DHT22;5177;50.068;8.156;2024-03-17T03:07:07;6.00;99.90
10263;DHT22;5177;50.068;8.156;2024-03-17T03:09:33;6.00;99.90
10263;DHT22;5177;50.068;8.156;2024-03-17T03:11:58;6.00;99.90
10263;DHT22;5177;50.068;8.156;2024-03-17T03:14:28;6.00;25.90
10263;DHT22;5177;50.068;8.156;2024-03-17T03:16:54;5.90;99.90
10263;DHT22;5177;50.068;8.156;2024-03-17T03:19:19;5.90;99.90
10263;DHT22;5177;50.068;8.156;2024-03-17T03:21:45;5.90;99.90
10263;DHT22;5177;50.068;8.156;2024-03-17T03:24:11;5.90;1.00
10263;DHT22;5177;50.068;8.156;2024-03-17T03:26:37;5.80;1.00
10263;DHT22;5177;50.068;8.156;2024-03-17T03:29:03;5.80;99.90
10263;DHT22;5177;50.068;8.156;2024-03-17T03:31:30;5.90;1.00
10263;DHT22;5177;50.068;8.156;2024-03-17T03:33:56;5.80;99.90
10263;DHT22;5177;50.068;8.156;2024-03-17T03:36:22;5.80;1.00
10263;DHT22;5177;50.068;8.156;2024-03-17T03:38:47;5.80;99.90
10263;DHT22;5177;50.068;8.156;2024-03-17T03:41:14;5.70;99.90
10263;DHT22;5177;50.068;8.156;2024-03-17T03:43:39;5.70;99.90
10263;DHT22;5177;50.068;8.156;2024-03-17T03:46:06;5.70;99.90
10263;DHT22;5177;50.068;8.156;2024-03-17T03:48:31;5.60;70.20
10263;DHT22;5177;50.068;8.156;2024-03-17T03:50:57;5.60;99.90
10263;DHT22;5177;50.068;8.156;2024-03-17T03:53:24;5.60;99.90
10263;DHT22;5177;50.068;8.156;2024-03-17T03:55:49;5.50;99.90
10263;DHT22;5177;50.068;8.156;2024-03-17T03:58:15;5.50;1.00
10263;DHT22;5177;50.068;8.156;2024-03-17T04:00:40;5.50;99.90
10263;DHT22;5177;50.068;8.156;2024-03-17T04:03:06;5.40;99.90
10263;DHT22;5177;50.068;8.156;2024-03-17T04:05:31;5.40;99.90
10263;DHT22;5177;50.068;8.156;2024-03-17T04:07:57;5.40;1.00
10263;DHT22;5177;50.068;8.156;2024-03-17T04:10:23;5.40;1.00
10263;DHT22;5177;50.068;8.156;2024-03-17T04:12:50;5.30;1.00
10263;DHT22;5177;50.068;8.156;2024-03-17T04:15:15;5.30;99.90
10263;DHT22;5177;50.068;8.156;2024-03-17T04:17:41;5.30;99.90
10263;DHT22;5177;50.068;8.156;2024-03-17T04:20:07;5.30;99.90
10263;DHT22;5177;50.068;8.156;2024-03-17T04:22:34;5.30;99.90
10263;DHT22;5177;50.068;8.156;2024-03-17T04:25:00;5.30;1.00
10263;DHT22;5177;50.068;8.156;2024-03-17T04:27:26;5.40;1.00
10263;DHT22;5177;50.068;8.156;2024-03-17T04:29:52;5.30;99.90
10263;DHT22;5177;50.068;8.156;2024-03-17T04:32:17;5.30;99.90
10263;DHT22;5177;50.068;8.156;2024-03-17T04:34:43;5.30;78.40
10263;DHT22;5177;50.068;8.156;2024-03-17T04:37:09;5.30;99.90
10263;DHT22;5177;50.068;8.156;2024-03-17T04:39:38;5.40;1.00
10263;DHT22;5177;50.068;8.156;2024-03-17T04:42:04;5.40;99.90
10263;DHT22;5177;50.068;8.156;2024-03-17T04:44:29;5.40;99.90
10263;DHT22;5177;50.068;8.156;2024-03-17T04:46:55;5.30;99.90
10263;DHT22;5177;50.068;8.156;2024-03-17T04:49:20;5.30;99.90
10263;DHT22;5177;50.068;8.156;2024-03-17T04:51:46;5.30;99.90
10263;DHT22;5177;50.068;8.156;2024-03-17T04:54:11;5.40;99.90
10263;DHT22;5177;50.068;8.156;2024-03-17T04:56:37;5.30;99.90
10263;DHT22;5177;50.068;8.156;2024-03-17T04:59:03;5.40;86.80
10263;DHT22;5177;50.068;8.156;2024-03-17T05:01:28;5.50;1.00
10263;DHT22;5177;50.068;8.156;2024-03-17T05:03:56;5.50;99.90
10263;DHT22;5177;50.068;8.156;2024-03-17T05:06:22;5.50;99.90
10263;DHT22;5177;50.068;8.156;2024-03-17T05:08:47;5.50;99.90
10263;DHT22;5177;50.068;8.156;2024-03-17T05:11:13;5.40;99.90
10263;DHT22;5177;50.068;8.156;2024-03-17T05:13:41;5.40;99.90
10263;DHT22;5177;50.068;8.156;2024-03-17T05:16:06;5.50;99.90
10263;DHT22;5177;50.068;8.156;2024-03-17T05:18:33;5.40;99.90
10263;DHT22;5177;50.068;8.156;2024-03-17T05:23:28;5.40;99.90
10263;DHT22;5177;50.068;8.156;2024-03-17T05:25:54;5.40;56.00
10263;DHT22;5177;50.068;8.156;2024-03-17T05:28:19;5.40;69.90
10263;DHT22;5177;50.068;8.156;2024-03-17T05:30:45;5.40;99.90
10263;DHT22;5177;50.068;8.156;2024-03-17T05:33:10;5.40;99.90
10263;DHT22;5177;50.068;8.156;2024-03-17T05:35:36;5.40;57.30
10263;DHT22;5177;50.068;8.156;2024-03-17T05:38:01;5.40;1.00
10263;DHT22;5177;50.068;8.156;2024-03-17T05:40:27;5.40;99.90
10263;DHT22;5177;50.068;8.156;2024-03-17T05:42:53;5.40;70.40
10263;DHT22;5177;50.068;8.156;2024-03-17T05:45:18;5.40;99.90
10263;DHT22;5177;50.068;8.156;2024-03-17T05:47:44;5.50;99.90
10263;DHT22;5177;50.068;8.156;2024-03-17T05:50:09;5.50;1.00
10263;DHT22;5177;50.068;8.156;2024-03-17T05:52:35;5.50;1.00
10263;DHT22;5177;50.068;8.156;2024-03-17T05:55:02;5.50;99.90
10263;DHT22;5177;50.068;8.156;2024-03-17T05:57:27;5.50;99.90
10263;DHT22;5177;50.068;8.156;2024-03-17T05:59:53;5.50;99.90
10263;DHT22;5177;50.068;8.156;2024-03-17T06:02:18;5.50;99.90
10263;DHT22;5177;50.068;8.156;2024-03-17T06:04:44;5.50;1.00
10263;DHT22;5177;50.068;8.156;2024-03-17T06:07:10;5.50;92.00
10263;DHT22;5177;50.068;8.156;2024-03-17T06:09:35;5.60;99.90
10263;DHT22;5177;50.068;8.156;2024-03-17T06:12:01;5.60;99.90
10263;DHT22;5177;50.068;8.156;2024-03-17T06:14:26;5.60;1.00
10263;DHT22;5177;50.068;8.156;2024-03-17T06:16:52;5.60;1.00
10263;DHT22;5177;50.068;8.156;2024-03-17T06:19:17;5.60;99.90
10263;DHT22;5177;50.068;8.156;2024-03-17T06:21:43;5.70;99.90
10263;DHT22;5177;50.068;8.156;2024-03-17T06:24:09;5.70;99.90
10263;DHT22;5177;50.068;8.156;2024-03-17T06:26:35;5.70;99.90
10263;DHT22;5177;50.068;8.156;2024-03-17T06:29:01;5.70;99.90
10263;DHT22;5177;50.068;8.156;2024-03-17T06:31:26;5.80;99.90
10263;DHT22;5177;50.068;8.156;2024-03-17T06:33:52;5.80;99.90
10263;DHT22;5177;50.068;8.156;2024-03-17T06:36:17;5.90;1.00
10263;DHT22;5177;50.068;8.156;2024-03-17T06:38:43;6.00;99.90
10263;DHT22;5177;50.068;8.156;2024-03-17T06:41:11;6.00;99.90
10263;DHT22;5177;50.068;8.156;2024-03-17T06:43:40;6.10;96.20
10263;DHT22;5177;50.068;8.156;2024-03-17T06:46:07;6.20;1.00
10263;DHT22;5177;50.068;8.156;2024-03-17T06:48:33;6.20;99.90
10263;DHT22;5177;50.068;8.156;2024-03-17T06:50:59;6.20;99.90
10263;DHT22;5177;50.068;8.156;2024-03-17T06:53:24;6.30;4.20
10263;DHT22;5177;50.068;8.156;2024-03-17T06:55:52;6.30;1.00
10263;DHT22;5177;50.068;8.156;2024-03-17T06:58:18;6.30;1.00
10263;DHT22;5177;50.068;8.156;2024-03-17T07:00:54;6.40;1.00
10263;DHT22;5177;50.068;8.156;2024-03-17T07:03:20;6.50;1.00
10263;DHT22;5177;50.068;8.156;2024-03-17T07:05:59;6.50;1.00
10263;DHT22;5177;50.068;8.156;2024-03-17T07:08:27;6.50;99.90
10263;DHT22;5177;50.068;8.156;2024-03-17T07:10:59;6.60;99.90
10263;DHT22;5177;50.068;8.156;2024-03-17T07:13:25;6.70;99.90
10263;DHT22;5177;50.068;8.156;2024-03-17T07:15:51;6.80;99.90
10263;DHT22;5177;50.068;8.156;2024-03-17T07:18:16;6.80;99.90
10263;DHT22;5177;50.068;8.156;2024-03-17T07:20:42;6.90;99.90
10263;DHT22;5177;50.068;8.156;2024-03-17T07:23:07;7.00;1.00
10263;DHT22;5177;50.068;8.156;2024-03-17T07:25:33;7.10;1.00
10263;DHT22;5177;50.068;8.156;2024-03-17T07:27:58;7.10;1.00
10263;DHT22;5177;50.068;8.156;2024-03-17T07:30:24;7.20;1.00
10263;DHT22;5177;50.068;8.156;2024-03-17T07:32:49;7.40;1.00
10263;DHT22;5177;50.068;8.156;2024-03-17T07:35:15;7.50;1.00
10263;DHT22;5177;50.068;8.156;2024-03-17T07:37:40;7.80;1.00
10263;DHT22;5177;50.068;8.156;2024-03-17T07:40:06;8.00;99.90
10263;DHT22;5177;50.068;8.156;2024-03-17T07:42:32;8.10;99.90
10263;DHT22;5177;50.068;8.156;2024-03-17T07:44:59;8.30;24.50
10263;DHT22;5177;50.068;8.156;2024-03-17T07:47:24;8.50;31.60
10263;DHT22;5177;50.068;8.156;2024-03-17T07:49:50;8.60;73.30
10263;DHT22;5177;50.068;8.156;2024-03-17T07:52:16;8.60;31.40
10263;DHT22;5177;50.068;8.156;2024-03-17T07:54:42;8.80;99.90
10263;DHT22;5177;50.068;8.156;2024-03-17T07:57:08;9.00;1.00
10263;DHT22;5177;50.068;8.156;2024-03-17T07:59:34;9.00;1.00
10263;DHT22;5177;50.068;8.156;2024-03-17T08:01:59;9.20;1.00
10263;DHT22;5177;50.068;8.156;2024-03-17T08:04:25;9.30;99.90
10263;DHT22;5177;50.068;8.156;2024-03-17T08:06:51;9.30;1.00
10263;DHT22;5177;50.068;8.156;2024-03-17T08:09:16;9.50;99.90
10263;DHT22;5177;50.068;8.156;2024-03-17T08:11:43;9.40;1.00
10263;DHT22;5177;50.068;8.156;2024-03-17T08:14:12;9.70;99.90
10263;DHT22;5177;50.068;8.156;2024-03-17T08:16:38;10.00;99.90
10263;DHT22;5177;50.068;8.156;2024-03-17T08:19:04;10.10;99.90
10263;DHT22;5177;50.068;8.156;2024-03-17T08:21:31;10.10;99.90
10263;DHT22;5177;50.068;8.156;2024-03-17T08:23:56;10.40;99.90
10263;DHT22;5177;50.068;8.156;2024-03-17T08:26:23;10.40;56.20
10263;DHT22;5177;50.068;8.156;2024-03-17T08:28:48;10.40;1.00
10263;DHT22;5177;50.068;8.156;2024-03-17T08:31:14;10.50;1.00
10263;DHT22;5177;50.068;8.156;2024-03-17T08:33:40;10.60;1.00
10263;DHT22;5177;50.068;8.156;2024-03-17T08:36:06;10.60;1.00
10263;DHT22;5177;50.068;8.156;2024-03-17T08:38:33;10.80;1.00
10263;DHT22;5177;50.068;8.156;2024-03-17T08:41:16;10.80;1.00
10263;DHT22;5177;50.068;8.156;2024-03-17T08:43:42;10.80;1.00
10263;DHT22;5177;50.068;8.156;2024-03-17T08:46:09;10.90;1.00
10263;DHT22;5177;50.068;8.156;2024-03-17T08:48:38;10.80;1.00
10263;DHT22;5177;50.068;8.156;2024-03-17T08:51:04;10.70;1.00
10263;DHT22;5177;50.068;8.156;2024-03-17T08:53:30;10.80;1.00
10263;DHT22;5177;50.068;8.156;2024-03-17T08:55:56;10.80;1.00
10263;DHT22;5177;50.068;8.156;2024-03-17T08:58:22;11.00;1.00
10263;DHT22;5177;50.068;8.156;2024-03-17T09:00:47;11.20;1.00
10263;DHT22;5177;50.068;8.156;2024-03-17T09:03:13;11.40;1.00
10263;DHT22;5177;50.068;8.156;2024-03-17T09:05:40;11.50;1.00
10263;DHT22;5177;50.068;8.156;2024-03-17T09:08:06;11.50;1.00
10263;DHT22;5177;50.068;8.156;2024-03-17T09:10:41;11.50;1.00
10263;DHT22;5177;50.068;8.156;2024-03-17T09:13:07;11.50;1.00
10263;DHT22;5177;50.068;8.156;2024-03-17T09:15:32;11.80;99.90
10263;DHT22;5177;50.068;8.156;2024-03-17T09:17:58;11.70;99.90
10263;DHT22;5177;50.068;8.156;2024-03-17T09:20:24;11.70;99.90
10263;DHT22;5177;50.068;8.156;2024-03-17T09:22:49;11.50;1.00
10263;DHT22;5177;50.068;8.156;2024-03-17T09:25:15;11.40;1.00
10263;DHT22;5177;50.068;8.156;2024-03-17T09:27:41;11.60;1.00
10263;DHT22;5177;50.068;8.156;2024-03-17T09:30:06;11.70;1.00
10263;DHT22;5177;50.068;8.156;2024-03-17T09:32:37;11.60;99.90
10263;DHT22;5177;50.068;8.156;2024-03-17T09:35:03;11.60;99.90
10263;DHT22;5177;50.068;8.156;2024-03-17T09:37:29;11.80;99.90
10263;DHT22;5177;50.068;8.156;2024-03-17T09:39:59;11.90;99.90
10263;DHT22;5177;50.068;8.156;2024-03-17T09:42:25;11.80;99.90
10263;DHT22;5177;50.068;8.156;2024-03-17T09:44:52;12.00;99.90
10263;DHT22;5177;50.068;8.156;2024-03-17T09:47:20;11.80;99.90
10263;DHT22;5177;50.068;8.156;2024-03-17T09:49:46;11.90;99.90
10263;DHT22;5177;50.068;8.156;2024-03-17T09:52:15;12.00;99.90
10263;DHT22;5177;50.068;8.156;2024-03-17T09:54:43;12.30;99.90
10263;DHT22;5177;50.068;8.156;2024-03-17T09:57:08;12.50;99.90
10263;DHT22;5177;50.068;8.156;2024-03-17T09:59:40;12.70;99.90
10263;DHT22;5177;50.068;8.156;2024-03-17T10:02:06;12.70;99.90
10263;DHT22;5177;50.068;8.156;2024-03-17T10:04:37;12.90;99.90
10263;DHT22;5177;50.068;8.156;2024-03-17T10:07:03;13.20;99.90
10263;DHT22;5177;50.068;8.156;2024-03-17T10:09:29;13.40;99.90
10263;DHT22;5177;50.068;8.156;2024-03-17T10:11:57;13.30;99.90
10263;DHT22;5177;50.068;8.156;2024-03-17T10:14:23;13.40;99.90
10263;DHT22;5177;50.068;8.156;2024-03-17T10:16:48;13.90;99.90
10263;DHT22;5177;50.068;8.156;2024-03-17T10:19:15;13.90;99.90
10263;DHT22;5177;50.068;8.156;2024-03-17T10:21:41;13.70;99.90
10263;DHT22;5177;50.068;8.156;2024-03-17T10:24:10;13.70;99.90
10263;DHT22;5177;50.068;8.156;2024-03-17T10:26:43;13.80;99.90
10263;DHT22;5177;50.068;8.156;2024-03-17T10:29:52;13.70;99.90
10263;DHT22;5177;50.068;8.156;2024-03-17T10:32:13;13.70;99.90
10263;DHT22;5177;50.068;8.156;2024-03-17T10:34:39;13.60;99.90
10263;DHT22;5177;50.068;8.156;2024-03-17T10:37:09;13.60;99.90
10263;DHT22;5177;50.068;8.156;2024-03-17T10:39:38;13.70;99.90
10263;DHT22;5177;50.068;8.156;2024-03-17T10:42:05;13.30;99.90
10263;DHT22;5177;50.068;8.156;2024-03-17T10:44:31;13.30;99.90
10263;DHT22;5177;50.068;8.156;2024-03-17T10:46:58;13.30;99.90
10263;DHT22;5177;50.068;8.156;2024-03-17T10:49:26;13.40;99.90
10263;DHT22;5177;50.068;8.156;2024-03-17T10:51:54;13.60;99.90
10263;DHT22;5177;50.068;8.156;2024-03-17T10:54:23;13.50;99.90
10263;DHT22;5177;50.068;8.156;2024-03-17T10:56:51;13.70;99.90
10263;DHT22;5177;50.068;8.156;2024-03-17T10:59:16;13.60;99.90
10263;DHT22;5177;50.068;8.156;2024-03-17T11:01:44;13.70;99.90
10263;DHT22;5177;50.068;8.156;2024-03-17T11:04:11;13.70;99.90
10263;DHT22;5177;50.068;8.156;2024-03-17T11:06:37;13.60;99.90
10263;DHT22;5177;50.068;8.156;2024-03-17T11:09:03;13.70;99.90
10263;DHT22;5177;50.068;8.156;2024-03-17T11:11:35;13.90;99.90
10263;DHT22;5177;50.068;8.156;2024-03-17T11:14:20;14.10;99.90
10263;DHT22;5177;50.068;8.156;2024-03-17T11:16:45;14.20;99.90
10263;DHT22;5177;50.068;8.156;2024-03-17T11:19:15;14.40;99.90
10263;DHT22;5177;50.068;8.156;2024-03-17T11:21:42;14.70;99.90
10263;DHT22;5177;50.068;8.156;2024-03-17T11:24:08;14.90;99.90
10263;DHT22;5177;50.068;8.156;2024-03-17T11:26:43;14.90;98.70
10263;DHT22;5177;50.068;8.156;2024-03-17T11:29:23;14.80;95.00
10263;DHT22;5177;50.068;8.156;2024-03-17T11:31:51;14.90;84.30
10263;DHT22;5177;50.068;8.156;2024-03-17T11:34:27;14.90;99.90
10263;DHT22;5177;50.068;8.156;2024-03-17T11:36:54;15.00;86.80
10263;DHT22;5177;50.068;8.156;2024-03-17T11:39:20;15.00;82.50
10263;DHT22;5177;50.068;8.156;2024-03-17T11:41:53;15.10;85.40
10263;DHT22;5177;50.068;8.156;2024-03-17T11:46:55;15.00;85.00
10263;DHT22;5177;50.068;8.156;2024-03-17T11:51:59;15.10;87.50
10263;DHT22;5177;50.068;8.156;2024-03-17T11:54:25;15.20;80.80
10263;DHT22;5177;50.068;8.156;2024-03-17T11:56:53;15.30;78.30
10263;DHT22;5177;50.068;8.156;2024-03-17T11:59:19;15.30;66.80
10263;DHT22;5177;50.068;8.156;2024-03-17T12:01:48;15.20;69.10
10263;DHT22;5177;50.068;8.156;2024-03-17T12:04:14;15.10;77.50
10263;DHT22;5177;50.068;8.156;2024-03-17T12:06:43;15.20;76.20
10263;DHT22;5177;50.068;8.156;2024-03-17T12:09:19;15.20;72.50
10263;DHT22;5177;50.068;8.156;2024-03-17T12:11:48;15.10;86.10
10263;DHT22;5177;50.068;8.156;2024-03-17T12:14:20;15.00;88.20
10263;DHT22;5177;50.068;8.156;2024-03-17T12:16:51;15.00;89.40
10263;DHT22;5177;50.068;8.156;2024-03-17T12:19:17;15.10;92.60
10263;DHT22;5177;50.068;8.156;2024-03-17T12:21:47;15.40;89.00
10263;DHT22;5177;50.068;8.156;2024-03-17T12:24:20;15.50;78.50
10263;DHT22;5177;50.068;8.156;2024-03-17T12:26:47;15.70;74.50
10263;DHT22;5177;50.068;8.156;2024-03-17T12:29:29;15.80;72.60
10263;DHT22;5177;50.068;8.156;2024-03-17T12:31:56;15.80;72.50
10263;DHT22;5177;50.068;8.156;2024-03-17T12:34:22;15.70;73.00
10263;DHT22;5177;50.068;8.156;2024-03-17T12:36:48;15.80;81.40
10263;DHT22;5177;50.068;8.156;2024-03-17T12:39:18;15.70;74.70
10263;DHT22;5177;50.068;8.156;2024-03-17T12:41:44;15.60;82.50
10263;DHT22;5177;50.068;8.156;2024-03-17T12:44:22;15.60;92.80
10263;DHT22;5177;50.068;8.156;2024-03-17T12:46:48;15.40;93.00
10263;DHT22;5177;50.068;8.156;2024-03-17T12:49:13;15.40;97.90
10263;DHT22;5177;50.068;8.156;2024-03-17T12:51:39;15.50;93.80
10263;DHT22;5177;50.068;8.156;2024-03-17T12:54:12;15.50;97.50
10263;DHT22;5177;50.068;8.156;2024-03-17T12:56:37;15.30;99.90
10263;DHT22;5177;50.068;8.156;2024-03-17T12:59:21;15.30;97.70
10263;DHT22;5177;50.068;8.156;2024-03-17T13:02:08;15.30;99.20
10263;DHT22;5177;50.068;8.156;2024-03-17T13:04:35;15.10;99.90
10263;DHT22;5177;50.068;8.156;2024-03-17T13:07:09;15.00;99.90
10263;DHT22;5177;50.068;8.156;2024-03-17T13:09:35;14.80;99.90
10263;DHT22;5177;50.068;8.156;2024-03-17T13:12:00;14.80;99.90
10263;DHT22;5177;50.068;8.156;2024-03-17T13:14:26;14.80;99.90
10263;DHT22;5177;50.068;8.156;2024-03-17T13:16:51;14.80;99.90
10263;DHT22;5177;50.068;8.156;2024-03-17T13:19:17;14.80;99.90
10263;DHT22;5177;50.068;8.156;2024-03-17T13:21:42;14.80;99.90
10263;DHT22;5177;50.068;8.156;2024-03-17T13:24:08;14.80;99.90
10263;DHT22;5177;50.068;8.156;2024-03-17T13:26:33;15.00;99.90
10263;DHT22;5177;50.068;8.156;2024-03-17T13:28:59;15.10;99.90
10263;DHT22;5177;50.068;8.156;2024-03-17T13:31:24;15.10;99.90
10263;DHT22;5177;50.068;8.156;2024-03-17T13:33:50;15.40;99.90
10263;DHT22;5177;50.068;8.156;2024-03-17T13:36:16;15.60;99.90
10263;DHT22;5177;50.068;8.156;2024-03-17T13:38:42;15.80;99.90
10263;DHT22;5177;50.068;8.156;2024-03-17T13:41:07;15.90;99.90
10263;DHT22;5177;50.068;8.156;2024-03-17T13:43:36;16.00;99.90
10263;DHT22;5177;50.068;8.156;2024-03-17T13:46:02;15.90;99.90
10263;DHT22;5177;50.068;8.156;2024-03-17T13:48:29;16.00;99.90
10263;DHT22;5177;50.068;8.156;2024-03-17T13:50:54;15.70;99.90
10263;DHT22;5177;50.068;8.156;2024-03-17T13:53:20;15.50;99.90
10263;DHT22;5177;50.068;8.156;2024-03-17T13:55:46;15.30;99.90
10263;DHT22;5177;50.068;8.156;2024-03-17T13:58:11;15.10;99.90
10263;DHT22;5177;50.068;8.156;2024-03-17T14:00:37;15.10;99.90
10263;DHT22;5177;50.068;8.156;2024-03-17T14:03:04;15.00;99.90
10263;DHT22;5177;50.068;8.156;2024-03-17T14:05:30;14.80;99.90
10263;DHT22;5177;50.068;8.156;2024-03-17T14:07:59;14.70;99.90
10263;DHT22;5177;50.068;8.156;2024-03-17T14:10:25;14.60;99.90
10263;DHT22;5177;50.068;8.156;2024-03-17T14:12:50;14.50;99.90
10263;DHT22;5177;50.068;8.156;2024-03-17T14:15:16;14.50;99.90
10263;DHT22;5177;50.068;8.156;2024-03-17T14:17:43;14.40;99.90
10263;DHT22;5177;50.068;8.156;2024-03-17T14:20:09;14.30;99.90
10263;DHT22;5177;50.068;8.156;2024-03-17T14:22:38;14.30;99.90
10263;DHT22;5177;50.068;8.156;2024-03-17T14:25:06;14.20;99.90
10263;DHT22;5177;50.068;8.156;2024-03-17T14:27:32;14.10;99.90
10263;DHT22;5177;50.068;8.156;2024-03-17T14:29:59;14.10;99.90
10263;DHT22;5177;50.068;8.156;2024-03-17T14:32:25;14.00;99.90
10263;DHT22;5177;50.068;8.156;2024-03-17T14:34:50;14.00;99.90
10263;DHT22;5177;50.068;8.156;2024-03-17T14:37:16;13.90;99.90
10263;DHT22;5177;50.068;8.156;2024-03-17T14:39:41;13.90;99.90
10263;DHT22;5177;50.068;8.156;2024-03-17T14:42:07;13.90;99.90
10263;DHT22;5177;50.068;8.156;2024-03-17T14:44:35;13.90;99.90
10263;DHT22;5177;50.068;8.156;2024-03-17T14:47:02;13.90;99.90
10263;DHT22;5177;50.068;8.156;2024-03-17T14:49:32;13.90;99.90
10263;DHT22;5177;50.068;8.156;2024-03-17T14:51:57;13.80;99.90
10263;DHT22;5177;50.068;8.156;2024-03-17T14:54:23;13.80;99.90
10263;DHT22;5177;50.068;8.156;2024-03-17T14:56:49;13.90;99.90
10263;DHT22;5177;50.068;8.156;2024-03-17T14:59:14;14.00;99.90
10263;DHT22;5177;50.068;8.156;2024-03-17T15:01:44;14.10;99.90
10263;DHT22;5177;50.068;8.156;2024-03-17T15:04:10;14.20;99.90
10263;DHT22;5177;50.068;8.156;2024-03-17T15:06:35;14.30;99.90
10263;DHT22;5177;50.068;8.156;2024-03-17T15:09:01;14.40;99.90
10263;DHT22;5177;50.068;8.156;2024-03-17T15:11:27;14.50;99.90
10263;DHT22;5177;50.068;8.156;2024-03-17T15:13:52;14.60;99.90
10263;DHT22;5177;50.068;8.156;2024-03-17T15:16:18;14.70;99.90
10263;DHT22;5177;50.068;8.156;2024-03-17T15:18:44;14.60;99.90
10263;DHT22;5177;50.068;8.156;2024-03-17T15:21:09;14.80;99.90
10263;DHT22;5177;50.068;8.156;2024-03-17T15:23:35;14.80;99.90
10263;DHT22;5177;50.068;8.156;2024-03-17T15:28:31;15.50;99.90
10263;DHT22;5177;50.068;8.156;2024-03-17T15:30:57;16.30;99.90
10263;DHT22;5177;50.068;8.156;2024-03-17T15:33:25;16.70;99.90
10263;DHT22;5177;50.068;8.156;2024-03-17T15:35:51;16.70;99.90
10263;DHT22;5177;50.068;8.156;2024-03-17T15:38:17;16.60;99.90
10263;DHT22;5177;50.068;8.156;2024-03-17T15:40:42;16.70;99.90
10263;DHT22;5177;50.068;8.156;2024-03-17T15:43:09;16.50;96.90
10263;DHT22;5177;50.068;8.156;2024-03-17T15:45:35;16.10;99.90
10263;DHT22;5177;50.068;8.156;2024-03-17T15:48:03;15.80;99.90
10263;DHT22;5177;50.068;8.156;2024-03-17T15:50:29;15.40;99.90
10263;DHT22;5177;50.068;8.156;2024-03-17T15:52:56;15.10;99.90
10263;DHT22;5177;50.068;8.156;2024-03-17T15:55:22;14.90;99.90
10263;DHT22;5177;50.068;8.156;2024-03-17T15:57:48;14.80;99.90
10263;DHT22;5177;50.068;8.156;2024-03-17T16:00:14;14.50;99.90
10263;DHT22;5177;50.068;8.156;2024-03-17T16:02:44;14.30;99.90
10263;DHT22;5177;50.068;8.156;2024-03-17T16:05:11;14.20;99.90